Time;durP1;ratioP1;P1;durP2;ratioP2;P2;SDS_P1;SDS_P2;PMS_P1;PMS_P2;Temp;Humidity;BMP_temperature;BMP_pressure;BME280_temperature;BME280_humidity;BME280_pressure;Samples;Min_cycle;Max_cycle;Signal;HPM_P1;HPM_P2
2023/08/22 00:00:13;;;;;;;10.00;7.70;;;;;;;24.67;97.53;98514.00;4157850;28;20721;-91
2023/08/22 00:02:18;;;;;;;9.53;7.73;;;;;;;24.66;97.17;98514.19;4176793;28;21277;-91
2023/08/22 00:04:22;;;;;;;10.30;8.73;;;;;;;24.63;97.57;98523.38;4170269;28;21369;-91
2023/08/22 00:06:25;;;;;;;8.20;7.17;;;;;;;24.63;97.58;98510.03;4170160;28;20684;-91
2023/08/22 00:08:28;;;;;;;8.90;6.80;;;;;;;24.61;97.80;98507.72;4156707;28;20637;-91
2023/08/22 00:10:31;;;;;;;8.73;7.83;;;;;;;24.59;97.21;98509.75;4174602;28;20640;-91
2023/08/22 00:12:34;;;;;;;7.67;6.87;;;;;;;24.53;97.61;98505.94;4157871;28;20688;-91
2023/08/22 00:14:37;;;;;;;8.27;7.43;;;;;;;24.47;96.90;98506.66;4172495;28;20676;-91
2023/08/22 00:16:42;;;;;;;8.40;7.03;;;;;;;24.44;97.79;98508.88;4156276;28;20648;-91
2023/08/22 00:18:45;;;;;;;9.73;8.10;;;;;;;24.41;97.35;98504.72;4171953;28;20729;-91
2023/08/22 00:20:48;;;;;;;8.87;7.50;;;;;;;24.37;97.46;98506.13;4172731;28;20644;-91
2023/08/22 00:22:51;;;;;;;10.40;7.27;;;;;;;24.39;97.47;98511.28;4171523;28;21201;-91
2023/08/22 00:24:57;;;;;;;8.43;7.50;;;;;;;24.38;97.88;98506.94;4173309;28;21210;-91
2023/08/22 00:27:01;;;;;;;8.90;7.60;;;;;;;24.38;98.47;98506.94;4166972;28;20655;-91
2023/08/22 00:29:07;;;;;;;10.17;8.17;;;;;;;24.35;98.46;98502.78;4157398;28;20639;-91
2023/08/22 00:31:11;;;;;;;10.10;7.30;;;;;;;24.32;97.79;98500.47;4157177;28;21240;-92
2023/08/22 00:33:15;;;;;;;10.43;7.60;;;;;;;24.30;98.55;98505.13;4168082;28;21066;-91
2023/08/22 00:35:18;;;;;;;10.90;7.20;;;;;;;24.30;98.73;98507.78;4180730;28;21233;-91
2023/08/22 00:37:22;;;;;;;8.80;7.63;;;;;;;24.31;99.12;98498.78;4165209;28;20706;-90
2023/08/22 00:39:28;;;;;;;8.53;7.10;;;;;;;24.27;97.81;98492.16;4156523;28;20714;-90
2023/08/22 00:41:32;;;;;;;8.10;7.33;;;;;;;24.25;97.99;98496.00;4157148;28;20972;-90
2023/08/22 00:43:35;;;;;;;9.23;7.27;;;;;;;24.19;98.15;98494.91;4153486;28;20637;-91
2023/08/22 00:45:38;;;;;;;8.30;6.50;;;;;;;24.18;98.93;98497.75;4170662;28;21690;-91
2023/08/22 00:47:41;;;;;;;8.30;7.07;;;;;;;24.17;98.12;98496.88;4154644;28;20655;-90
2023/08/22 00:49:47;;;;;;;9.60;7.63;;;;;;;24.14;99.34;98503.59;4153706;28;20731;-91
2023/08/22 00:51:51;;;;;;;11.37;7.77;;;;;;;24.11;98.54;98499.44;4153519;28;20999;-90
2023/08/22 00:53:54;;;;;;;8.87;7.97;;;;;;;24.12;98.41;98495.78;4171489;28;21250;-91
2023/08/22 00:55:57;;;;;;;8.43;7.53;;;;;;;24.12;98.80;98493.13;4170296;28;20646;-91
2023/08/22 00:58:00;;;;;;;8.10;6.97;;;;;;;24.09;99.96;98492.66;4169862;28;20648;-91
2023/08/22 01:00:06;;;;;;;8.63;7.70;;;;;;;24.03;99.51;98496.84;4175703;28;20629;-91
2023/08/22 01:02:09;;;;;;;8.57;7.60;;;;;;;24.02;98.86;98489.84;4155085;28;20635;-91
2023/08/22 01:04:12;;;;;;;9.70;7.40;;;;;;;24.02;99.39;98494.38;4155013;28;21354;-91
2023/08/22 01:06:22;;;;;;;8.50;7.63;;;;;;;24.06;99.64;98485.84;4156158;28;20694;-90
2023/08/22 01:08:30;;;;;;;9.53;7.20;;;;;;;24.06;99.02;98487.69;4167216;28;20622;-91
2023/08/22 01:10:36;;;;;;;8.47;7.57;;;;;;;24.06;99.53;98491.16;4156018;28;20646;-91
2023/08/22 01:12:43;;;;;;;9.47;8.00;;;;;;;24.07;99.27;98486.66;4151921;28;20694;-91
2023/08/22 01:14:52;;;;;;;8.50;7.43;;;;;;;24.04;99.43;98489.69;4154746;28;20702;-91
2023/08/22 01:16:55;;;;;;;8.60;7.23;;;;;;;24.02;100.00;98494.38;4167868;28;21087;-91
2023/08/22 01:19:01;;;;;;;8.53;7.40;;;;;;;24.01;100.00;98492.69;4166246;28;20780;-91
2023/08/22 01:21:05;;;;;;;8.40;7.03;;;;;;;24.00;100.00;98493.72;4172041;28;20641;-93
2023/08/22 01:23:09;;;;;;;8.13;6.83;;;;;;;23.94;99.59;98484.59;4168136;28;20737;-93
2023/08/22 01:25:13;;;;;;;11.17;7.30;;;;;;;23.91;98.92;98484.94;4176856;28;21295;-93
2023/08/22 01:27:18;;;;;;;8.10;6.87;;;;;;;23.88;99.88;98484.47;4154435;28;20638;-93
2023/08/22 01:29:27;;;;;;;7.30;6.57;;;;;;;23.88;99.53;98479.16;4172145;28;20638;-93
2023/08/22 01:31:33;;;;;;;7.37;6.60;;;;;;;23.86;100.00;98483.81;4152390;28;21202;-92
2023/08/22 01:33:40;;;;;;;8.10;6.83;;;;;;;23.82;100.00;98490.53;4184737;28;21316;-93
2023/08/22 01:35:47;;;;;;;7.73;6.27;;;;;;;23.80;100.00;98479.19;4154511;28;21006;-93
2023/08/22 01:37:50;;;;;;;7.80;7.00;;;;;;;23.80;99.84;98476.53;4153737;28;20630;-92
2023/08/22 01:39:57;;;;;;;7.33;6.63;;;;;;;23.80;100.00;98485.38;4154200;28;20626;-92
2023/08/22 01:42:00;;;;;;;8.77;7.20;;;;;;;23.81;99.96;98484.34;4165781;28;20634;-93
2023/08/22 01:44:04;;;;;;;7.93;7.13;;;;;;;23.81;100.00;98483.53;4159106;28;20683;-92
2023/08/22 01:46:07;;;;;;;7.73;6.30;;;;;;;23.75;100.00;98477.09;4170904;28;21203;-93
2023/08/22 01:48:10;;;;;;;7.77;6.63;;;;;;;23.73;99.77;98468.41;4155597;28;21306;-92
2023/08/22 01:50:20;;;;;;;7.37;6.40;;;;;;;23.74;100.00;98475.41;4161278;28;20638;-94
2023/08/22 01:52:36;;;;;;;7.93;7.13;;;;;;;23.75;100.00;98473.56;4156373;28;20690;-93
2023/08/22 01:54:43;;;;;;;8.30;7.10;;;;;;;23.67;100.00;98462.16;4150045;28;21127;-93
2023/08/22 01:56:49;;;;;;;8.80;7.80;;;;;;;23.65;100.00;98470.31;4170145;28;20630;-93
2023/08/22 01:58:52;;;;;;;10.00;7.03;;;;;;;23.62;99.57;98465.31;4158552;28;20672;-93
2023/08/22 02:00:56;;;;;;;11.20;7.27;;;;;;;23.63;100.00;98466.13;4154141;28;20624;-93
2023/08/22 02:02:59;;;;;;;8.00;6.80;;;;;;;23.64;100.00;98467.84;4169008;28;20674;-92
2023/08/22 02:05:02;;;;;;;8.03;7.23;;;;;;;23.63;100.00;98466.94;4172545;28;20760;-92
2023/08/22 02:07:05;;;;;;;8.23;7.27;;;;;;;23.60;99.90;98469.97;4159662;28;20638;-92
2023/08/22 02:09:09;;;;;;;9.13;8.10;;;;;;;23.56;100.00;98471.34;4169424;28;20701;-93
2023/08/22 02:11:13;;;;;;;7.60;6.80;;;;;;;23.58;100.00;98469.31;4155635;28;20641;-92
2023/08/22 02:13:17;;;;;;;10.17;7.20;;;;;;;23.54;100.00;98470.66;4170543;28;20658;-93
2023/08/22 02:15:21;;;;;;;10.37;7.63;;;;;;;23.52;99.65;98470.03;4169469;28;20661;-92
2023/08/22 02:17:24;;;;;;;9.70;7.50;;;;;;;23.51;100.00;98478.19;4151702;28;20732;-92
2023/08/22 02:19:27;;;;;;;10.10;7.50;;;;;;;23.50;100.00;98471.19;4153522;28;20715;-93
2023/08/22 02:21:30;;;;;;;8.20;6.93;;;;;;;23.51;100.00;98475.53;4154909;28;20629;-93
2023/08/22 02:23:34;;;;;;;7.77;6.67;;;;;;;23.49;100.00;98469.56;4158022;28;21234;-94
2023/08/22 02:25:37;;;;;;;8.60;7.00;;;;;;;23.47;100.00;98466.22;4157478;28;20631;-93
2023/08/22 02:27:40;;;;;;;9.00;6.63;;;;;;;23.45;100.00;98466.38;4162562;28;20651;-93
2023/08/22 02:29:45;;;;;;;9.00;7.63;;;;;;;23.43;100.00;98464.94;4151973;28;20648;-93
2023/08/22 02:31:49;;;;;;;8.53;6.80;;;;;;;23.43;100.00;98465.75;4168570;28;21041;-92
2023/08/22 02:33:52;;;;;;;11.57;7.30;;;;;;;23.42;100.00;98466.75;4164225;28;20653;-92
2023/08/22 02:35:55;;;;;;;8.70;7.40;;;;;;;23.45;100.00;98470.91;4159089;28;20750;-93
2023/08/22 02:37:59;;;;;;;12.30;8.27;;;;;;;23.45;100.00;98469.06;4155044;28;20631;-93
2023/08/22 02:40:05;;;;;;;9.33;7.60;;;;;;;23.43;100.00;98476.41;4174483;28;20628;-93
2023/08/22 02:42:08;;;;;;;10.43;7.77;;;;;;;23.45;100.00;98481.56;4166542;28;20701;-93
2023/08/22 02:44:12;;;;;;;8.40;6.90;;;;;;;23.45;100.00;98479.72;4165098;28;20620;-93
2023/08/22 02:46:16;;;;;;;8.40;7.00;;;;;;;23.45;100.00;98481.56;4168043;28;21048;-93
2023/08/22 02:48:20;;;;;;;10.70;7.80;;;;;;;23.42;100.00;98474.72;4171681;28;21242;-91
2023/08/22 02:50:24;;;;;;;10.57;7.83;;;;;;;23.38;100.00;98473.44;4152820;28;20641;-92
2023/08/22 02:52:27;;;;;;;8.30;7.30;;;;;;;23.37;100.00;98473.63;4170713;28;20749;-94
2023/08/22 02:54:30;;;;;;;9.60;7.97;;;;;;;23.37;100.00;98485.09;4155127;28;20739;-93
2023/08/22 02:56:33;;;;;;;10.83;7.50;;;;;;;23.35;100.00;98478.28;4166432;28;20637;-93
2023/08/22 02:58:36;;;;;;;8.73;7.50;;;;;;;23.34;100.00;98481.94;4163382;28;20640;-93
2023/08/22 03:00:40;;;;;;;9.83;7.43;;;;;;;23.33;100.00;98475.81;4157231;28;20727;-93
2023/08/22 03:02:43;;;;;;;9.37;7.57;;;;;;;23.31;100.00;98474.31;4156278;28;20724;-93
2023/08/22 03:04:47;;;;;;;8.90;7.63;;;;;;;23.27;100.00;98475.66;4176322;28;20664;-91
2023/08/22 03:06:50;;;;;;;8.23;7.37;;;;;;;23.26;100.00;98468.69;4153720;28;21413;-93
2023/08/22 03:08:54;;;;;;;9.10;7.30;;;;;;;23.22;100.00;98476.16;4171356;28;20633;-92
2023/08/22 03:11:02;;;;;;;9.67;7.73;;;;;;;23.19;100.00;98476.53;4169974;28;20645;-93
2023/08/22 03:13:08;;;;;;;9.97;8.33;;;;;;;23.19;100.00;98478.34;4152107;28;20687;-93
2023/08/22 03:15:11;;;;;;;8.97;7.57;;;;;;;23.15;100.00;98462.91;4154596;28;20638;-93
2023/08/22 03:17:16;;;;;;;8.33;7.43;;;;;;;23.17;100.00;98468.88;4155379;28;20654;-93
2023/08/22 03:19:22;;;;;;;8.50;7.60;;;;;;;23.14;100.00;98462.09;4168486;28;20676;-93
2023/08/22 03:21:29;;;;;;;10.13;8.03;;;;;;;23.17;100.00;98458.22;4170545;28;20750;-93
2023/08/22 03:23:32;;;;;;;9.90;7.83;;;;;;;23.13;100.00;98460.41;4171569;28;20629;-93
2023/08/22 03:25:36;;;;;;;10.20;8.50;;;;;;;23.11;100.00;98462.44;4165630;28;20726;-93
2023/08/22 03:27:39;;;;;;;9.23;7.67;;;;;;;23.11;100.00;98450.94;4170885;28;20640;-92
2023/08/22 03:29:44;;;;;;;8.77;7.73;;;;;;;23.09;100.00;98455.59;4149937;28;20627;-93
2023/08/22 03:31:47;;;;;;;8.57;7.37;;;;;;;23.07;100.00;98460.28;4165710;28;20641;-93
2023/08/22 03:33:51;;;;;;;10.40;7.20;;;;;;;23.08;100.00;98461.94;4158272;28;20690;-93
2023/08/22 03:35:56;;;;;;;9.27;7.47;;;;;;;23.10;100.00;98467.94;4160178;28;20628;-93
2023/08/22 03:37:59;;;;;;;8.57;7.60;;;;;;;23.09;100.00;98471.59;4171501;28;20637;-93
2023/08/22 03:40:04;;;;;;;8.77;7.70;;;;;;;23.07;100.00;98469.09;4159052;28;20639;-93
2023/08/22 03:42:07;;;;;;;8.43;7.27;;;;;;;23.10;100.00;98475.91;4173027;28;20644;-93
2023/08/22 03:44:09;;;;;;;12.10;9.20;;;;;;;23.10;100.00;98473.25;4174887;28;20701;-93
2023/08/22 03:46:13;;;;;;;11.17;7.60;;;;;;;23.07;100.00;98471.75;4171050;28;20644;-93
2023/08/22 03:48:27;;;;;;;10.77;7.50;;;;;;;23.07;100.00;98469.09;4159107;28;20676;-93
2023/08/22 03:50:30;;;;;;;9.83;7.50;;;;;;;23.04;100.00;98477.41;4167592;28;20638;-93
2023/08/22 03:52:35;;;;;;;9.80;7.00;;;;;;;23.03;100.00;98477.59;4174014;28;20629;-93
2023/08/22 03:54:37;;;;;;;7.80;6.90;;;;;;;23.03;100.00;98482.91;4159502;28;20653;-91
2023/08/22 03:56:40;;;;;;;9.53;7.17;;;;;;;23.02;100.00;98484.75;4157806;28;20627;-91
2023/08/22 03:58:43;;;;;;;11.03;7.77;;;;;;;22.98;100.00;98475.44;4173283;28;20626;-91
2023/08/22 04:00:46;;;;;;;8.63;7.10;;;;;;;22.97;100.00;98478.28;4166486;28;20641;-91
2023/08/22 04:02:54;;;;;;;9.60;7.40;;;;;;;22.92;100.00;98468.13;4158967;28;20725;-91
2023/08/22 04:04:57;;;;;;;10.10;7.07;;;;;;;22.91;100.00;98466.47;4171804;28;20706;-92
2023/08/22 04:07:00;;;;;;;10.97;7.60;;;;;;;22.89;100.00;98465.78;4175890;28;21221;-93
2023/08/22 04:09:05;;;;;;;9.83;8.30;;;;;;;22.88;100.00;98473.94;4158861;28;20668;-92
2023/08/22 04:11:08;;;;;;;9.50;8.00;;;;;;;22.87;100.00;98475.78;4160178;28;20631;-93
2023/08/22 04:13:11;;;;;;;8.10;7.30;;;;;;;22.87;100.00;98474.97;4168035;28;20988;-93
2023/08/22 04:15:15;;;;;;;8.53;7.03;;;;;;;22.86;100.00;98470.66;4158293;28;20656;-93
2023/08/22 04:17:18;;;;;;;8.70;7.60;;;;;;;22.86;100.00;98478.63;4161483;28;20641;-91
2023/08/22 04:19:22;;;;;;;9.80;7.43;;;;;;;22.82;100.00;98479.97;4157171;28;20683;-90
2023/08/22 04:21:25;;;;;;;11.40;7.40;;;;;;;22.82;100.00;98475.50;4155162;28;21231;-89
2023/08/22 04:23:28;;;;;;;8.90;7.90;;;;;;;22.83;100.00;98476.31;4154806;28;20637;-90
2023/08/22 04:25:33;;;;;;;9.27;8.20;;;;;;;22.79;100.00;98482.97;4151179;28;20636;-89
2023/08/22 04:27:37;;;;;;;8.40;7.50;;;;;;;22.79;100.00;98485.63;4172282;28;20699;-92
2023/08/22 04:29:41;;;;;;;10.30;7.30;;;;;;;22.79;100.00;98491.78;4157434;28;20644;-92
2023/08/22 04:31:43;;;;;;;9.73;7.93;;;;;;;22.80;100.00;98484.63;4166967;28;20669;-92
2023/08/22 04:33:46;;;;;;;9.20;7.83;;;;;;;22.80;100.00;98484.63;4168121;28;20746;-92
2023/08/22 04:35:50;;;;;;;8.97;7.23;;;;;;;22.79;100.00;98490.94;4168112;28;21290;-91
2023/08/22 04:37:53;;;;;;;8.27;7.33;;;;;;;22.80;100.00;98489.94;4158412;28;21035;-92
2023/08/22 04:39:56;;;;;;;13.83;7.10;;;;;;;22.79;100.00;98499.78;4167272;28;20693;-92
2023/08/22 04:42:09;;;;;;;10.10;9.10;;;;;;;22.79;100.00;98501.59;4151228;28;20715;-92
2023/08/22 04:44:27;;;;;;;9.10;8.10;;;;;;;22.79;100.00;98499.78;4149427;28;20634;-92
2023/08/22 04:46:31;;;;;;;9.40;7.33;;;;;;;22.79;100.00;98506.91;4158455;28;20664;-92
2023/08/22 04:48:37;;;;;;;10.07;7.50;;;;;;;22.76;100.00;98508.09;4174799;28;20644;-92
2023/08/22 04:50:39;;;;;;;8.67;6.70;;;;;;;22.74;100.00;98507.41;4166603;28;21212;-92
2023/08/22 04:52:42;;;;;;;8.97;8.13;;;;;;;22.74;100.00;98512.72;4170954;28;20632;-93
2023/08/22 04:54:46;;;;;;;8.63;7.37;;;;;;;22.74;100.00;98509.25;4160222;28;20693;-92
2023/08/22 04:56:49;;;;;;;9.00;6.80;;;;;;;22.72;100.00;98506.75;4167654;28;20761;-92
2023/08/22 04:58:54;;;;;;;8.37;7.10;;;;;;;22.72;100.00;98512.09;4146264;28;20633;-91
2023/08/22 05:00:58;;;;;;;12.13;7.67;;;;;;;22.77;100.00;98514.25;4181615;28;20639;-93
2023/08/22 05:03:02;;;;;;;10.40;8.13;;;;;;;22.79;100.00;98513.09;4170195;28;20714;-93
2023/08/22 05:05:09;;;;;;;8.40;6.83;;;;;;;22.83;100.00;98511.72;4146132;28;20671;-92
2023/08/22 05:07:13;;;;;;;9.63;7.47;;;;;;;22.84;100.00;98517.91;4164758;28;20636;-92
2023/08/22 05:09:17;;;;;;;8.70;7.57;;;;;;;22.86;100.00;98524.69;4174603;28;20712;-93
2023/08/22 05:11:20;;;;;;;10.17;8.83;;;;;;;22.90;100.00;98517.22;4154352;28;21193;-90
2023/08/22 05:13:24;;;;;;;11.90;8.40;;;;;;;22.96;100.00;98522.72;4170725;28;20697;-90
2023/08/22 05:15:28;;;;;;;7.90;7.10;;;;;;;23.03;100.00;98528.16;4168177;28;20762;-90
2023/08/22 05:17:32;;;;;;;9.90;8.43;;;;;;;23.13;100.00;98526.16;4172546;28;20695;-91
2023/08/22 05:19:36;;;;;;;9.30;8.27;;;;;;;23.23;100.00;98535.59;4168418;28;21257;-91
2023/08/22 05:21:39;;;;;;;10.90;8.00;;;;;;;23.37;100.00;98535.69;4150894;28;20751;-91
2023/08/22 05:23:43;;;;;;;9.63;8.47;;;;;;;23.49;100.00;98530.81;4156399;28;20633;-90
2023/08/22 05:25:46;;;;;;;8.17;7.10;;;;;;;23.61;100.00;98537.44;4171294;28;20684;-90
2023/08/22 05:27:48;;;;;;;9.93;8.07;;;;;;;23.71;100.00;98536.25;4155181;28;20673;-91
2023/08/22 05:29:52;;;;;;;9.20;7.17;;;;;;;23.82;99.69;98535.84;4156189;28;20702;-91
2023/08/22 05:31:57;;;;;;;9.30;8.30;;;;;;;23.95;99.24;98531.59;4154625;28;20642;-91
2023/08/22 05:34:00;;;;;;;9.10;7.60;;;;;;;24.07;98.32;98524.84;4156946;28;21065;-92
2023/08/22 05:36:04;;;;;;;8.47;7.30;;;;;;;24.15;99.15;98535.44;4173011;28;20764;-90
2023/08/22 05:38:07;;;;;;;8.73;7.63;;;;;;;24.13;99.20;98539.28;4168779;28;20638;-90
2023/08/22 05:40:11;;;;;;;8.20;7.13;;;;;;;24.10;98.79;98539.63;4151084;28;22712;-90
2023/08/22 05:42:14;;;;;;;8.47;7.47;;;;;;;24.07;98.01;98537.31;4171522;28;20996;-90
2023/08/22 05:44:17;;;;;;;8.50;7.60;;;;;;;24.01;98.10;98533.53;4169454;28;20675;-91
2023/08/22 05:46:21;;;;;;;8.33;7.43;;;;;;;23.97;99.67;98532.22;4155534;28;20676;-91
2023/08/22 05:48:26;;;;;;;8.07;6.90;;;;;;;23.98;99.71;98525.03;4174781;28;20645;-90
2023/08/22 05:50:30;;;;;;;10.50;7.07;;;;;;;24.00;99.94;98539.06;4165047;28;21147;-90
2023/08/22 05:52:34;;;;;;;10.20;8.00;;;;;;;23.98;100.00;98531.22;4170256;28;20793;-90
2023/08/22 05:54:37;;;;;;;13.07;8.40;;;;;;;24.14;100.00;98533.75;4164934;28;20621;-91
2023/08/22 05:56:40;;;;;;;9.23;7.77;;;;;;;24.39;100.00;98545.94;4149781;28;20670;-90
2023/08/22 05:58:44;;;;;;;10.30;7.70;;;;;;;24.61;98.41;98542.41;4152365;28;20651;-90
2023/08/22 06:00:47;;;;;;;12.00;8.40;;;;;;;24.69;98.29;98548.50;4152334;28;20631;-91
2023/08/22 06:02:50;;;;;;;8.27;7.37;;;;;;;24.83;98.67;98543.19;4157324;28;21203;-91
2023/08/22 06:04:55;;;;;;;8.97;7.90;;;;;;;25.11;98.21;98549.59;4171206;28;20786;-91
2023/08/22 06:06:58;;;;;;;11.07;8.17;;;;;;;25.40;96.78;98547.75;4161323;28;21308;-90
2023/08/22 06:09:04;;;;;;;9.97;7.97;;;;;;;25.67;96.14;98547.09;4176487;28;20741;-91
2023/08/22 06:11:07;;;;;;;9.53;8.13;;;;;;;25.96;95.29;98549.69;4154885;28;20629;-90
2023/08/22 06:13:10;;;;;;;10.20;8.40;;;;;;;26.15;93.38;98548.06;4162308;28;21204;-91
2023/08/22 06:15:15;;;;;;;8.80;7.90;;;;;;;26.33;93.44;98555.69;4169268;28;20655;-91
2023/08/22 06:17:21;;;;;;;9.43;7.77;;;;;;;26.56;93.31;98555.25;4160038;28;20693;-91
2023/08/22 06:19:24;;;;;;;11.33;8.00;;;;;;;26.77;92.66;98554.41;4181442;28;20655;-90
2023/08/22 06:21:30;;;;;;;8.37;7.50;;;;;;;26.98;92.38;98554.41;4170041;28;21212;-89
2023/08/22 06:23:35;;;;;;;8.77;7.57;;;;;;;27.17;91.55;98557.22;4182461;28;20644;-89
2023/08/22 06:25:38;;;;;;;8.70;7.90;;;;;;;27.33;89.76;98552.34;4158880;28;21502;-90
2023/08/22 06:27:43;;;;;;;9.73;7.50;;;;;;;27.48;89.35;98555.72;4164757;28;21707;-87
2023/08/22 06:29:47;;;;;;;10.33;7.60;;;;;;;27.62;89.13;98552.97;4167469;28;21200;-87
2023/08/22 06:31:52;;;;;;;9.70;8.70;;;;;;;27.79;87.81;98553.44;4149476;28;20640;-86
2023/08/22 06:33:55;;;;;;;10.30;8.60;;;;;;;27.92;87.31;98542.75;4151735;28;21278;-87
2023/08/22 06:35:58;;;;;;;9.90;8.90;;;;;;;28.09;86.84;98551.09;4158844;28;20663;-87
2023/08/22 06:38:03;;;;;;;10.10;8.53;;;;;;;28.24;85.83;98537.50;4160614;28;20759;-87
2023/08/22 06:40:08;;;;;;;14.00;8.97;;;;;;;28.43;83.65;98552.78;4161579;28;20632;-87
2023/08/22 06:42:11;;;;;;;10.57;8.70;;;;;;;28.60;83.26;98547.66;4151832;28;20657;-87
2023/08/22 06:44:14;;;;;;;10.00;8.90;;;;;;;28.76;83.03;98549.97;4161276;28;20644;-86
2023/08/22 06:46:21;;;;;;;10.70;8.50;;;;;;;28.88;83.35;98550.16;4159006;28;20648;-86
2023/08/22 06:48:24;;;;;;;10.10;9.00;;;;;;;28.96;82.64;98548.09;4150124;28;20648;-86
2023/08/22 06:50:43;;;;;;;11.33;10.23;;;;;;;29.10;81.57;98549.72;4178743;28;20617;-86
2023/08/22 06:52:46;;;;;;;9.60;8.60;;;;;;;29.22;82.18;98548.88;4161992;28;20840;-86
2023/08/22 06:54:51;;;;;;;9.83;8.90;;;;;;;29.38;81.20;98553.00;4162804;28;20644;-86
2023/08/22 06:56:54;;;;;;;9.13;8.33;;;;;;;29.46;81.53;98553.59;4163775;28;20653;-86
2023/08/22 06:58:57;;;;;;;9.10;8.20;;;;;;;29.58;80.72;98554.59;4149903;28;20636;-86
2023/08/22 07:01:00;;;;;;;10.10;8.40;;;;;;;29.71;79.94;98547.31;4162164;28;20668;-86
2023/08/22 07:03:04;;;;;;;9.90;8.90;;;;;;;29.83;80.26;98550.16;4150792;28;20687;-86
2023/08/22 07:05:09;;;;;;;9.23;8.33;;;;;;;29.94;78.71;98550.34;4160674;28;20688;-85
2023/08/22 07:07:13;;;;;;;8.97;8.07;;;;;;;30.00;79.93;98544.09;4159061;28;20643;-89
2023/08/22 07:09:16;;;;;;;10.40;8.60;;;;;;;30.08;78.62;98552.72;4163911;28;20818;-89
2023/08/22 07:11:21;;;;;;;9.00;7.93;;;;;;;30.17;78.71;98556.81;4162031;28;20638;-87
2023/08/22 07:13:24;;;;;;;11.80;8.70;;;;;;;30.29;79.40;98552.41;4148171;28;20987;-90
2023/08/22 07:15:27;;;;;;;10.90;9.80;;;;;;;30.38;77.22;98553.00;4164200;28;20651;-87
2023/08/22 07:17:30;;;;;;;11.27;10.07;;;;;;;30.46;79.35;98554.41;4159652;28;20694;-87
2023/08/22 07:19:34;;;;;;;10.47;9.37;;;;;;;30.62;79.36;98563.81;4160661;28;20647;-87
2023/08/22 07:21:44;;;;;;;10.77;9.23;;;;;;;30.70;76.25;98563.53;4164581;28;20623;-87
2023/08/22 07:23:47;;;;;;;10.10;9.10;;;;;;;30.73;75.41;98565.78;4161744;28;21085;-88
2023/08/22 07:25:51;;;;;;;9.40;8.40;;;;;;;30.74;76.50;98556.66;4147496;28;20628;-88
2023/08/22 07:27:54;;;;;;;9.87;8.83;;;;;;;30.81;75.78;98562.81;4168427;28;20841;-88
2023/08/22 07:29:58;;;;;;;10.60;8.43;;;;;;;30.84;73.98;98565.06;4168818;28;21315;-88
2023/08/22 07:32:01;;;;;;;9.03;8.10;;;;;;;30.90;74.69;98561.53;4168029;28;20633;-89
2023/08/22 07:34:04;;;;;;;11.17;8.80;;;;;;;30.94;74.21;98556.31;4167248;28;20644;-89
2023/08/22 07:36:07;;;;;;;9.80;8.80;;;;;;;31.05;74.55;98563.69;4156528;28;20660;-88
2023/08/22 07:38:10;;;;;;;8.40;7.60;;;;;;;31.12;75.67;98559.06;4156577;28;20629;-89
2023/08/22 07:40:16;;;;;;;9.33;8.33;;;;;;;31.18;76.00;98560.03;4154177;28;20633;-88
2023/08/22 07:42:19;;;;;;;10.00;9.00;;;;;;;31.26;75.31;98557.03;4172334;28;20635;-88
2023/08/22 07:44:24;;;;;;;9.70;8.70;;;;;;;31.34;73.56;98562.16;4157321;28;21247;-88
2023/08/22 07:46:27;;;;;;;11.70;9.17;;;;;;;31.39;73.50;98563.13;4173385;28;21043;-89
2023/08/22 07:48:32;;;;;;;9.90;8.70;;;;;;;31.44;73.29;98560.63;4171867;28;21296;-89
2023/08/22 07:50:35;;;;;;;9.80;8.53;;;;;;;31.53;75.35;98567.38;4157161;28;20675;-89
2023/08/22 07:52:38;;;;;;;8.37;7.57;;;;;;;31.64;74.52;98562.03;4167127;28;20628;-89
2023/08/22 07:54:41;;;;;;;9.27;8.17;;;;;;;31.65;76.46;98562.84;4166151;28;20633;-89
2023/08/22 07:56:45;;;;;;;9.27;7.90;;;;;;;31.71;74.51;98567.34;4170806;28;20667;-89
2023/08/22 07:58:48;;;;;;;10.10;8.33;;;;;;;31.74;72.53;98572.31;4156494;28;20661;-90
2023/08/22 08:00:53;;;;;;;8.57;7.67;;;;;;;31.78;72.83;98574.31;4173553;28;21300;-90
2023/08/22 08:02:56;;;;;;;8.47;7.63;;;;;;;31.86;74.06;98565.09;4169435;28;20636;-93
2023/08/22 08:04:59;;;;;;;8.40;7.60;;;;;;;31.91;73.37;98564.19;4168238;28;21027;-92
2023/08/22 08:07:02;;;;;;;9.07;8.20;;;;;;;32.00;74.47;98565.56;4151548;28;21088;-88
2023/08/22 08:09:06;;;;;;;8.80;7.60;;;;;;;32.08;74.00;98559.84;4165006;28;20698;-93
2023/08/22 08:11:12;;;;;;;9.30;8.30;;;;;;;32.05;73.01;98563.00;4172026;28;20651;-90
2023/08/22 08:13:15;;;;;;;10.30;9.17;;;;;;;32.09;72.14;98560.69;4170811;28;20628;-91
2023/08/22 08:15:18;;;;;;;9.90;8.60;;;;;;;32.07;72.46;98552.81;4170793;28;20650;-90
2023/08/22 08:17:23;;;;;;;9.47;8.40;;;;;;;32.06;71.54;98559.25;4163710;28;20661;-93
2023/08/22 08:19:26;;;;;;;8.40;7.70;;;;;;;32.10;71.92;98560.47;4168577;28;20624;-91
2023/08/22 08:21:29;;;;;;;6.27;5.70;;;;;;;32.17;71.01;98554.94;4170606;28;20630;-87
2023/08/22 08:23:33;;;;;;;7.10;6.40;;;;;;;32.19;69.82;98548.28;4172915;28;20624;-87
2023/08/22 08:25:36;;;;;;;7.30;6.60;;;;;;;32.22;69.23;98553.22;4170367;28;20644;-87
2023/08/22 08:27:39;;;;;;;8.27;6.67;;;;;;;32.26;70.11;98551.69;4144936;28;20640;-88
2023/08/22 08:29:42;;;;;;;7.70;6.53;;;;;;;32.36;71.94;98541.97;4167614;28;20633;-87
2023/08/22 08:31:47;;;;;;;6.93;6.23;;;;;;;32.44;70.25;98548.97;4151994;28;20692;-87
2023/08/22 08:33:52;;;;;;;7.70;6.83;;;;;;;32.49;70.45;98551.78;4158785;28;20724;-86
2023/08/22 08:35:55;;;;;;;8.20;7.40;;;;;;;32.50;69.09;98545.34;4172100;28;20736;-88
2023/08/22 08:37:59;;;;;;;9.23;6.83;;;;;;;32.52;70.52;98546.78;4163733;28;20700;-87
2023/08/22 08:40:05;;;;;;;10.37;7.53;;;;;;;32.65;71.94;98543.03;4158824;28;20672;-87
2023/08/22 08:42:12;;;;;;;7.47;6.77;;;;;;;32.73;72.41;98550.78;4157621;28;21271;-87
2023/08/22 08:44:16;;;;;;;7.30;6.60;;;;;;;32.79;70.33;98544.47;4159913;28;20683;-87
2023/08/22 08:46:25;;;;;;;7.67;6.97;;;;;;;32.78;70.80;98542.78;4166103;28;21990;-87
2023/08/22 08:48:30;;;;;;;8.90;7.03;;;;;;;32.83;71.74;98549.16;4155810;28;21020;-87
2023/08/22 08:50:38;;;;;;;8.27;6.27;;;;;;;32.88;69.18;98542.00;4147650;28;20630;-87
2023/08/22 08:52:45;;;;;;;8.50;6.67;;;;;;;33.00;69.35;98539.31;4165589;28;20661;-87
2023/08/22 08:54:48;;;;;;;11.20;7.17;;;;;;;33.01;67.67;98541.78;4180928;28;20636;-86
2023/08/22 08:56:52;;;;;;;6.90;6.30;;;;;;;33.00;68.08;98542.03;4163910;28;20662;-87
2023/08/22 08:58:56;;;;;;;7.53;6.80;;;;;;;33.00;69.22;98548.28;4162523;28;20634;-87
2023/08/22 09:01:00;;;;;;;7.80;6.90;;;;;;;33.03;68.62;98539.69;4155674;28;20637;-86
2023/08/22 09:03:05;;;;;;;6.43;5.80;;;;;;;33.06;68.72;98543.78;4166623;28;20645;-87
2023/08/22 09:05:11;;;;;;;20.10;6.50;;;;;;;33.08;69.22;98539.00;4150378;28;20654;-87
2023/08/22 09:07:17;;;;;;;7.20;6.37;;;;;;;33.12;69.86;98538.28;4147032;28;20687;-88
2023/08/22 09:09:21;;;;;;;7.10;6.30;;;;;;;33.23;70.10;98540.16;4161919;28;20641;-87
2023/08/22 09:11:27;;;;;;;6.87;6.17;;;;;;;33.24;68.17;98536.38;4177181;28;21259;-87
2023/08/22 09:13:31;;;;;;;7.70;6.83;;;;;;;33.22;67.68;98538.50;4175358;28;21056;-87
2023/08/22 09:16:01;;;;;;;7.63;6.47;;;;;;;33.16;67.93;98536.75;4176840;28;20621;-86
2023/08/22 09:18:05;;;;;;;6.47;5.87;;;;;;;33.21;68.52;98536.03;4164978;28;20660;-87
2023/08/22 09:20:10;;;;;;;8.03;6.50;;;;;;;33.21;69.52;98534.13;4163920;28;20625;-87
2023/08/22 09:22:15;;;;;;;7.73;6.90;;;;;;;33.23;69.53;98523.09;4166232;28;20641;-87
2023/08/22 09:24:19;;;;;;;6.37;5.23;;;;;;;33.21;68.77;98520.63;4150751;28;20630;-87
2023/08/22 09:26:22;;;;;;;9.30;5.70;;;;;;;33.22;68.75;98532.28;4153753;28;20996;-87
2023/08/22 09:28:26;;;;;;;5.97;5.37;;;;;;;33.28;68.01;98529.44;4167812;28;21203;-87
2023/08/22 09:30:28;;;;;;;6.33;5.73;;;;;;;33.36;68.52;98534.47;4153787;28;20737;-87
2023/08/22 09:32:33;;;;;;;6.47;5.87;;;;;;;33.41;68.63;98532.72;4176238;28;21035;-87
2023/08/22 09:34:37;;;;;;;7.23;6.43;;;;;;;33.49;70.06;98531.56;4164688;28;20636;-87
2023/08/22 09:36:45;;;;;;;6.27;5.67;;;;;;;33.47;68.18;98520.97;4173643;28;20998;-87
2023/08/22 09:38:54;;;;;;;6.53;5.93;;;;;;;33.54;69.69;98523.53;4169788;28;21061;-87